sensor_id;sensor_type;location;lat;lon;timestamp;P1;durP1;ratioP1;P2;durP2;ratioP2
54679;SDS011;40578;53.178;5.846;2023-08-08T00:01:29;6.60;;;2.20;;
54679;SDS011;40578;53.178;5.846;2023-08-08T00:03:55;6.40;;;2.33;;
54679;SDS011;40578;53.178;5.846;2023-08-08T00:06:21;5.10;;;2.27;;
54679;SDS011;40578;53.178;5.846;2023-08-08T00:08:46;6.83;;;2.47;;
54679;SDS011;40578;53.178;5.846;2023-08-08T00:11:12;5.13;;;2.30;;
54679;SDS011;40578;53.178;5.846;2023-08-08T00:13:37;8.47;;;2.73;;
54679;SDS011;40578;53.178;5.846;2023-08-08T00:16:03;4.03;;;2.13;;
54679;SDS011;40578;53.178;5.846;2023-08-08T00:18:30;10.00;;;2.30;;
54679;SDS011;40578;53.178;5.846;2023-08-08T00:20:55;5.23;;;2.27;;
54679;SDS011;40578;53.178;5.846;2023-08-08T00:23:21;7.57;;;2.50;;
54679;SDS011;40578;53.178;5.846;2023-08-08T00:25:47;7.70;;;2.80;;
54679;SDS011;40578;53.178;5.846;2023-08-08T00:28:15;6.63;;;2.40;;
54679;SDS011;40578;53.178;5.846;2023-08-08T00:30:41;9.65;;;3.30;;
54679;SDS011;40578;53.178;5.846;2023-08-08T00:33:07;6.60;;;2.80;;
54679;SDS011;40578;53.178;5.846;2023-08-08T00:35:32;7.33;;;2.50;;
54679;SDS011;40578;53.178;5.846;2023-08-08T00:37:58;6.60;;;2.70;;
54679;SDS011;40578;53.178;5.846;2023-08-08T00:40:23;3.80;;;2.27;;
54679;SDS011;40578;53.178;5.846;2023-08-08T00:42:49;6.57;;;3.00;;
54679;SDS011;40578;53.178;5.846;2023-08-08T00:45:15;5.67;;;2.50;;
54679;SDS011;40578;53.178;5.846;2023-08-08T00:47:40;6.80;;;2.40;;
54679;SDS011;40578;53.178;5.846;2023-08-08T00:50:06;5.87;;;2.50;;
54679;SDS011;40578;53.178;5.846;2023-08-08T00:52:33;7.40;;;2.60;;
54679;SDS011;40578;53.178;5.846;2023-08-08T00:54:59;7.38;;;2.67;;
54679;SDS011;40578;53.178;5.846;2023-08-08T00:57:25;5.80;;;2.63;;
54679;SDS011;40578;53.178;5.846;2023-08-08T00:59:51;10.25;;;2.72;;
54679;SDS011;40578;53.178;5.846;2023-08-08T01:02:16;7.00;;;2.90;;
54679;SDS011;40578;53.178;5.846;2023-08-08T01:04:42;7.13;;;3.03;;
54679;SDS011;40578;53.178;5.846;2023-08-08T01:07:12;6.68;;;2.92;;
54679;SDS011;40578;53.178;5.846;2023-08-08T01:09:59;6.80;;;2.90;;
54679;SDS011;40578;53.178;5.846;2023-08-08T01:12:32;9.07;;;3.45;;
54679;SDS011;40578;53.178;5.846;2023-08-08T01:15:06;6.88;;;3.05;;
54679;SDS011;40578;53.178;5.846;2023-08-08T01:17:33;5.10;;;2.78;;
54679;SDS011;40578;53.178;5.846;2023-08-08T01:20:01;10.93;;;3.15;;
54679;SDS011;40578;53.178;5.846;2023-08-08T01:22:36;7.45;;;3.30;;
54679;SDS011;40578;53.178;5.846;2023-08-08T01:25:05;11.95;;;3.13;;
54679;SDS011;40578;53.178;5.846;2023-08-08T01:27:33;8.13;;;3.35;;
54679;SDS011;40578;53.178;5.846;2023-08-08T01:29:59;15.65;;;3.42;;
54679;SDS011;40578;53.178;5.846;2023-08-08T01:32:24;8.17;;;2.80;;
54679;SDS011;40578;53.178;5.846;2023-08-08T01:34:50;8.73;;;2.93;;
54679;SDS011;40578;53.178;5.846;2023-08-08T01:37:18;6.77;;;3.10;;
54679;SDS011;40578;53.178;5.846;2023-08-08T01:39:48;5.85;;;3.05;;
54679;SDS011;40578;53.178;5.846;2023-08-08T01:42:15;6.63;;;2.55;;
54679;SDS011;40578;53.178;5.846;2023-08-08T01:44:43;8.32;;;2.90;;
54679;SDS011;40578;53.178;5.846;2023-08-08T01:47:09;7.17;;;2.67;;
54679;SDS011;40578;53.178;5.846;2023-08-08T01:49:34;5.43;;;2.40;;
54679;SDS011;40578;53.178;5.846;2023-08-08T01:52:00;6.67;;;2.63;;
54679;SDS011;40578;53.178;5.846;2023-08-08T01:54:26;8.37;;;2.70;;
54679;SDS011;40578;53.178;5.846;2023-08-08T01:56:51;9.70;;;2.40;;
54679;SDS011;40578;53.178;5.846;2023-08-08T01:59:17;7.80;;;2.37;;
54679;SDS011;40578;53.178;5.846;2023-08-08T02:01:42;5.73;;;2.00;;
54679;SDS011;40578;53.178;5.846;2023-08-08T02:04:08;5.43;;;2.00;;
54679;SDS011;40578;53.178;5.846;2023-08-08T02:06:34;6.07;;;2.30;;
54679;SDS011;40578;53.178;5.846;2023-08-08T02:08:59;5.57;;;2.10;;
54679;SDS011;40578;53.178;5.846;2023-08-08T02:11:25;8.93;;;3.13;;
54679;SDS011;40578;53.178;5.846;2023-08-08T02:13:50;6.93;;;1.90;;
54679;SDS011;40578;53.178;5.846;2023-08-08T02:16:16;8.33;;;2.10;;
54679;SDS011;40578;53.178;5.846;2023-08-08T02:18:42;6.23;;;2.30;;
54679;SDS011;40578;53.178;5.846;2023-08-08T02:21:08;6.80;;;2.17;;
54679;SDS011;40578;53.178;5.846;2023-08-08T02:23:34;7.57;;;2.40;;
54679;SDS011;40578;53.178;5.846;2023-08-08T02:25:59;6.90;;;2.00;;
54679;SDS011;40578;53.178;5.846;2023-08-08T02:28:25;6.28;;;2.95;;
54679;SDS011;40578;53.178;5.846;2023-08-08T02:30:51;5.40;;;2.00;;
54679;SDS011;40578;53.178;5.846;2023-08-08T02:33:18;5.75;;;2.20;;
54679;SDS011;40578;53.178;5.846;2023-08-08T02:35:44;4.85;;;2.33;;
54679;SDS011;40578;53.178;5.846;2023-08-08T02:38:09;5.33;;;2.20;;
54679;SDS011;40578;53.178;5.846;2023-08-08T02:40:35;7.10;;;2.30;;
54679;SDS011;40578;53.178;5.846;2023-08-08T02:43:01;6.27;;;2.00;;
54679;SDS011;40578;53.178;5.846;2023-08-08T02:45:26;6.27;;;2.20;;
54679;SDS011;40578;53.178;5.846;2023-08-08T02:47:52;7.13;;;2.23;;
54679;SDS011;40578;53.178;5.846;2023-08-08T02:50:17;6.50;;;2.47;;
54679;SDS011;40578;53.178;5.846;2023-08-08T02:52:43;4.63;;;2.00;;
54679;SDS011;40578;53.178;5.846;2023-08-08T02:55:09;4.50;;;1.90;;
54679;SDS011;40578;53.178;5.846;2023-08-08T02:57:34;4.33;;;1.67;;
54679;SDS011;40578;53.178;5.846;2023-08-08T03:00:00;7.83;;;2.03;;
54679;SDS011;40578;53.178;5.846;2023-08-08T03:02:26;5.83;;;1.80;;
54679;SDS011;40578;53.178;5.846;2023-08-08T03:04:51;5.43;;;1.80;;
54679;SDS011;40578;53.178;5.846;2023-08-08T03:07:17;7.70;;;1.97;;
54679;SDS011;40578;53.178;5.846;2023-08-08T03:09:42;7.43;;;2.00;;
54679;SDS011;40578;53.178;5.846;2023-08-08T03:12:08;4.97;;;1.90;;
54679;SDS011;40578;53.178;5.846;2023-08-08T03:14:34;5.10;;;1.87;;
54679;SDS011;40578;53.178;5.846;2023-08-08T03:16:59;4.30;;;1.70;;
54679;SDS011;40578;53.178;5.846;2023-08-08T03:19:25;10.83;;;2.33;;
54679;SDS011;40578;53.178;5.846;2023-08-08T03:21:51;6.20;;;2.73;;
54679;SDS011;40578;53.178;5.846;2023-08-08T03:24:17;5.37;;;2.13;;
54679;SDS011;40578;53.178;5.846;2023-08-08T03:26:42;5.03;;;1.97;;
54679;SDS011;40578;53.178;5.846;2023-08-08T03:29:08;5.63;;;2.07;;
54679;SDS011;40578;53.178;5.846;2023-08-08T03:31:35;4.07;;;1.90;;
54679;SDS011;40578;53.178;5.846;2023-08-08T03:34:02;6.32;;;2.20;;
54679;SDS011;40578;53.178;5.846;2023-08-08T03:36:28;4.25;;;2.00;;
54679;SDS011;40578;53.178;5.846;2023-08-08T03:38:53;4.97;;;2.17;;
54679;SDS011;40578;53.178;5.846;2023-08-08T03:41:19;8.70;;;2.50;;
54679;SDS011;40578;53.178;5.846;2023-08-08T03:43:45;7.17;;;2.20;;
54679;SDS011;40578;53.178;5.846;2023-08-08T03:46:10;7.10;;;1.97;;
54679;SDS011;40578;53.178;5.846;2023-08-08T03:48:37;6.28;;;2.30;;
54679;SDS011;40578;53.178;5.846;2023-08-08T03:51:03;2.70;;;1.50;;
54679;SDS011;40578;53.178;5.846;2023-08-08T03:53:28;7.00;;;1.83;;
54679;SDS011;40578;53.178;5.846;2023-08-08T03:55:54;4.90;;;1.30;;
54679;SDS011;40578;53.178;5.846;2023-08-08T03:58:20;6.33;;;1.50;;
54679;SDS011;40578;53.178;5.846;2023-08-08T04:00:45;5.77;;;1.53;;
54679;SDS011;40578;53.178;5.846;2023-08-08T04:03:14;8.27;;;1.37;;
54679;SDS011;40578;53.178;5.846;2023-08-08T04:05:44;5.05;;;1.50;;
54679;SDS011;40578;53.178;5.846;2023-08-08T04:08:11;7.30;;;1.55;;
54679;SDS011;40578;53.178;5.846;2023-08-08T04:10:38;4.68;;;1.60;;
54679;SDS011;40578;53.178;5.846;2023-08-08T04:13:03;5.53;;;1.63;;
54679;SDS011;40578;53.178;5.846;2023-08-08T04:15:29;4.87;;;1.30;;
54679;SDS011;40578;53.178;5.846;2023-08-08T04:17:54;5.47;;;1.10;;
54679;SDS011;40578;53.178;5.846;2023-08-08T04:20:20;4.03;;;1.10;;
54679;SDS011;40578;53.178;5.846;2023-08-08T04:22:46;5.03;;;1.40;;
54679;SDS011;40578;53.178;5.846;2023-08-08T04:25:11;9.07;;;1.20;;
54679;SDS011;40578;53.178;5.846;2023-08-08T04:27:37;3.93;;;1.63;;
54679;SDS011;40578;53.178;5.846;2023-08-08T04:30:02;3.37;;;1.30;;
54679;SDS011;40578;53.178;5.846;2023-08-08T04:32:29;5.88;;;1.50;;
54679;SDS011;40578;53.178;5.846;2023-08-08T04:34:55;5.45;;;1.00;;
54679;SDS011;40578;53.178;5.846;2023-08-08T04:37:21;3.90;;;1.40;;
54679;SDS011;40578;53.178;5.846;2023-08-08T04:39:46;5.57;;;1.63;;
54679;SDS011;40578;53.178;5.846;2023-08-08T04:42:12;7.97;;;1.60;;
54679;SDS011;40578;53.178;5.846;2023-08-08T04:44:37;5.57;;;1.50;;
54679;SDS011;40578;53.178;5.846;2023-08-08T04:47:03;6.43;;;1.30;;
54679;SDS011;40578;53.178;5.846;2023-08-08T04:49:29;3.30;;;1.33;;
54679;SDS011;40578;53.178;5.846;2023-08-08T04:51:54;6.67;;;1.67;;
54679;SDS011;40578;53.178;5.846;2023-08-08T04:54:20;5.40;;;1.60;;
54679;SDS011;40578;53.178;5.846;2023-08-08T04:56:46;5.37;;;1.47;;
54679;SDS011;40578;53.178;5.846;2023-08-08T04:59:11;4.23;;;1.30;;
54679;SDS011;40578;53.178;5.846;2023-08-08T05:01:37;4.80;;;1.43;;
54679;SDS011;40578;53.178;5.846;2023-08-08T05:04:03;4.43;;;1.43;;
54679;SDS011;40578;53.178;5.846;2023-08-08T05:06:28;7.60;;;1.80;;
54679;SDS011;40578;53.178;5.846;2023-08-08T05:08:54;4.40;;;1.43;;
54679;SDS011;40578;53.178;5.846;2023-08-08T05:11:21;6.43;;;1.48;;
54679;SDS011;40578;53.178;5.846;2023-08-08T05:13:47;6.30;;;1.50;;
54679;SDS011;40578;53.178;5.846;2023-08-08T05:16:13;5.00;;;1.20;;
54679;SDS011;40578;53.178;5.846;2023-08-08T05:18:39;4.67;;;1.60;;
54679;SDS011;40578;53.178;5.846;2023-08-08T05:21:05;5.65;;;1.70;;
54679;SDS011;40578;53.178;5.846;2023-08-08T05:23:31;3.03;;;1.10;;
54679;SDS011;40578;53.178;5.846;2023-08-08T05:25:56;7.63;;;2.00;;
54679;SDS011;40578;53.178;5.846;2023-08-08T05:28:22;4.53;;;1.93;;
54679;SDS011;40578;53.178;5.846;2023-08-08T05:30:48;6.07;;;1.30;;
54679;SDS011;40578;53.178;5.846;2023-08-08T05:33:13;5.00;;;1.23;;
54679;SDS011;40578;53.178;5.846;2023-08-08T05:35:39;3.00;;;1.20;;
54679;SDS011;40578;53.178;5.846;2023-08-08T05:38:04;6.70;;;1.27;;
54679;SDS011;40578;53.178;5.846;2023-08-08T05:40:30;8.03;;;1.37;;
54679;SDS011;40578;53.178;5.846;2023-08-08T05:42:55;7.00;;;1.37;;
54679;SDS011;40578;53.178;5.846;2023-08-08T05:45:21;3.90;;;1.30;;
54679;SDS011;40578;53.178;5.846;2023-08-08T05:47:47;3.63;;;1.10;;
54679;SDS011;40578;53.178;5.846;2023-08-08T05:50:12;10.00;;;1.40;;
54679;SDS011;40578;53.178;5.846;2023-08-08T05:52:38;6.00;;;2.10;;
54679;SDS011;40578;53.178;5.846;2023-08-08T05:55:03;6.03;;;1.43;;
54679;SDS011;40578;53.178;5.846;2023-08-08T05:57:29;8.98;;;1.40;;
54679;SDS011;40578;53.178;5.846;2023-08-08T05:59:55;7.23;;;1.60;;
54679;SDS011;40578;53.178;5.846;2023-08-08T06:02:21;7.57;;;1.60;;
54679;SDS011;40578;53.178;5.846;2023-08-08T06:04:46;7.87;;;1.83;;
54679;SDS011;40578;53.178;5.846;2023-08-08T06:07:12;7.13;;;1.30;;
54679;SDS011;40578;53.178;5.846;2023-08-08T06:09:37;3.97;;;1.10;;
54679;SDS011;40578;53.178;5.846;2023-08-08T06:12:03;5.47;;;1.50;;
54679;SDS011;40578;53.178;5.846;2023-08-08T06:14:30;5.40;;;1.40;;
54679;SDS011;40578;53.178;5.846;2023-08-08T06:16:56;5.30;;;1.10;;
54679;SDS011;40578;53.178;5.846;2023-08-08T06:19:21;7.13;;;1.43;;
54679;SDS011;40578;53.178;5.846;2023-08-08T06:21:47;5.30;;;1.43;;
54679;SDS011;40578;53.178;5.846;2023-08-08T06:24:13;6.65;;;1.20;;
54679;SDS011;40578;53.178;5.846;2023-08-08T06:26:39;2.90;;;1.00;;
54679;SDS011;40578;53.178;5.846;2023-08-08T06:29:05;4.27;;;1.00;;
54679;SDS011;40578;53.178;5.846;2023-08-08T06:31:30;4.63;;;1.10;;
54679;SDS011;40578;53.178;5.846;2023-08-08T06:33:56;7.47;;;1.57;;
54679;SDS011;40578;53.178;5.846;2023-08-08T06:36:22;4.20;;;1.07;;
54679;SDS011;40578;53.178;5.846;2023-08-08T06:38:47;7.60;;;1.20;;
54679;SDS011;40578;53.178;5.846;2023-08-08T06:41:13;6.90;;;1.43;;
54679;SDS011;40578;53.178;5.846;2023-08-08T06:43:39;6.43;;;1.10;;
54679;SDS011;40578;53.178;5.846;2023-08-08T06:46:04;8.03;;;1.50;;
54679;SDS011;40578;53.178;5.846;2023-08-08T06:48:30;5.27;;;1.00;;
54679;SDS011;40578;53.178;5.846;2023-08-08T06:50:55;6.63;;;1.27;;
54679;SDS011;40578;53.178;5.846;2023-08-08T06:53:21;8.20;;;1.43;;
54679;SDS011;40578;53.178;5.846;2023-08-08T06:55:47;7.93;;;1.42;;
54679;SDS011;40578;53.178;5.846;2023-08-08T06:58:13;8.90;;;1.20;;
54679;SDS011;40578;53.178;5.846;2023-08-08T07:00:38;6.77;;;1.67;;
54679;SDS011;40578;53.178;5.846;2023-08-08T07:03:04;5.33;;;1.40;;
54679;SDS011;40578;53.178;5.846;2023-08-08T07:05:30;3.93;;;1.37;;
54679;SDS011;40578;53.178;5.846;2023-08-08T07:07:55;6.80;;;1.20;;
54679;SDS011;40578;53.178;5.846;2023-08-08T07:10:21;6.83;;;1.30;;
54679;SDS011;40578;53.178;5.846;2023-08-08T07:12:47;7.77;;;1.40;;
54679;SDS011;40578;53.178;5.846;2023-08-08T07:15:13;4.93;;;1.30;;
54679;SDS011;40578;53.178;5.846;2023-08-08T07:17:39;6.40;;;1.50;;
54679;SDS011;40578;53.178;5.846;2023-08-08T07:20:05;4.67;;;1.33;;
54679;SDS011;40578;53.178;5.846;2023-08-08T07:22:31;4.32;;;1.30;;
54679;SDS011;40578;53.178;5.846;2023-08-08T07:24:57;7.35;;;1.58;;
54679;SDS011;40578;53.178;5.846;2023-08-08T07:27:23;5.10;;;1.15;;
54679;SDS011;40578;53.178;5.846;2023-08-08T07:29:50;7.00;;;1.20;;
54679;SDS011;40578;53.178;5.846;2023-08-08T07:32:16;3.23;;;1.00;;
54679;SDS011;40578;53.178;5.846;2023-08-08T07:34:42;5.18;;;1.30;;
54679;SDS011;40578;53.178;5.846;2023-08-08T07:37:08;4.57;;;1.10;;
54679;SDS011;40578;53.178;5.846;2023-08-08T07:39:33;3.73;;;0.80;;
54679;SDS011;40578;53.178;5.846;2023-08-08T07:41:59;7.13;;;1.90;;
54679;SDS011;40578;53.178;5.846;2023-08-08T07:44:25;6.33;;;1.60;;
54679;SDS011;40578;53.178;5.846;2023-08-08T07:46:50;6.80;;;1.57;;
54679;SDS011;40578;53.178;5.846;2023-08-08T07:49:16;6.93;;;1.90;;
54679;SDS011;40578;53.178;5.846;2023-08-08T07:51:41;7.67;;;1.30;;
54679;SDS011;40578;53.178;5.846;2023-08-08T07:54:07;3.70;;;1.00;;
54679;SDS011;40578;53.178;5.846;2023-08-08T07:56:34;4.35;;;1.27;;
54679;SDS011;40578;53.178;5.846;2023-08-08T07:59:00;8.02;;;1.80;;
54679;SDS011;40578;53.178;5.846;2023-08-08T08:01:26;4.38;;;1.30;;
54679;SDS011;40578;53.178;5.846;2023-08-08T08:03:52;4.13;;;1.15;;
54679;SDS011;40578;53.178;5.846;2023-08-08T08:06:18;6.67;;;1.13;;
54679;SDS011;40578;53.178;5.846;2023-08-08T08:08:44;4.60;;;0.93;;
54679;SDS011;40578;53.178;5.846;2023-08-08T08:11:09;5.50;;;1.10;;
54679;SDS011;40578;53.178;5.846;2023-08-08T08:13:36;5.13;;;1.20;;
54679;SDS011;40578;53.178;5.846;2023-08-08T08:16:01;9.23;;;1.67;;
54679;SDS011;40578;53.178;5.846;2023-08-08T08:18:27;7.03;;;1.30;;
54679;SDS011;40578;53.178;5.846;2023-08-08T08:20:54;5.38;;;1.50;;
54679;SDS011;40578;53.178;5.846;2023-08-08T08:23:20;4.20;;;1.30;;
54679;SDS011;40578;53.178;5.846;2023-08-08T08:25:46;7.37;;;1.50;;
54679;SDS011;40578;53.178;5.846;2023-08-08T08:28:13;6.45;;;1.60;;
54679;SDS011;40578;53.178;5.846;2023-08-08T08:30:39;5.55;;;1.33;;
54679;SDS011;40578;53.178;5.846;2023-08-08T08:33:05;6.47;;;1.23;;
54679;SDS011;40578;53.178;5.846;2023-08-08T08:35:32;5.95;;;1.15;;
54679;SDS011;40578;53.178;5.846;2023-08-08T08:37:59;6.28;;;1.00;;
54679;SDS011;40578;53.178;5.846;2023-08-08T08:40:25;5.87;;;1.23;;
54679;SDS011;40578;53.178;5.846;2023-08-08T08:42:52;2.70;;;0.95;;
54679;SDS011;40578;53.178;5.846;2023-08-08T08:45:19;10.30;;;1.42;;
54679;SDS011;40578;53.178;5.846;2023-08-08T08:47:46;5.00;;;1.30;;
54679;SDS011;40578;53.178;5.846;2023-08-08T08:50:13;5.55;;;1.23;;
54679;SDS011;40578;53.178;5.846;2023-08-08T08:52:41;6.93;;;1.30;;
54679;SDS011;40578;53.178;5.846;2023-08-08T08:55:08;5.35;;;1.50;;
54679;SDS011;40578;53.178;5.846;2023-08-08T08:57:34;6.25;;;1.40;;
54679;SDS011;40578;53.178;5.846;2023-08-08T09:00:00;5.63;;;1.10;;
54679;SDS011;40578;53.178;5.846;2023-08-08T09:02:26;6.63;;;1.20;;
54679;SDS011;40578;53.178;5.846;2023-08-08T09:04:52;5.20;;;1.57;;
54679;SDS011;40578;53.178;5.846;2023-08-08T09:07:18;6.85;;;1.33;;
54679;SDS011;40578;53.178;5.846;2023-08-08T09:09:47;5.63;;;1.23;;
54679;SDS011;40578;53.178;5.846;2023-08-08T09:12:13;6.03;;;1.47;;
54679;SDS011;40578;53.178;5.846;2023-08-08T09:14:41;4.10;;;0.98;;
54679;SDS011;40578;53.178;5.846;2023-08-08T09:17:14;4.50;;;1.30;;
54679;SDS011;40578;53.178;5.846;2023-08-08T09:19:43;3.38;;;1.50;;
54679;SDS011;40578;53.178;5.846;2023-08-08T09:22:10;3.88;;;1.17;;
54679;SDS011;40578;53.178;5.846;2023-08-08T09:24:38;4.40;;;2.17;;
54679;SDS011;40578;53.178;5.846;2023-08-08T09:27:06;4.03;;;1.20;;
54679;SDS011;40578;53.178;5.846;2023-08-08T09:29:32;8.75;;;1.40;;
54679;SDS011;40578;53.178;5.846;2023-08-08T09:31:58;3.15;;;0.85;;
54679;SDS011;40578;53.178;5.846;2023-08-08T09:34:24;6.83;;;1.40;;
54679;SDS011;40578;53.178;5.846;2023-08-08T09:36:51;5.75;;;1.35;;
54679;SDS011;40578;53.178;5.846;2023-08-08T09:39:18;8.88;;;1.83;;
54679;SDS011;40578;53.178;5.846;2023-08-08T09:41:45;4.57;;;1.48;;
54679;SDS011;40578;53.178;5.846;2023-08-08T09:44:11;7.72;;;1.60;;
54679;SDS011;40578;53.178;5.846;2023-08-08T09:46:37;8.97;;;1.53;;
54679;SDS011;40578;53.178;5.846;2023-08-08T09:49:04;10.27;;;1.80;;
54679;SDS011;40578;53.178;5.846;2023-08-08T09:51:30;7.18;;;1.40;;
54679;SDS011;40578;53.178;5.846;2023-08-08T09:53:58;4.57;;;1.05;;
54679;SDS011;40578;53.178;5.846;2023-08-08T09:56:25;8.20;;;1.42;;
54679;SDS011;40578;53.178;5.846;2023-08-08T09:58:51;8.57;;;1.63;;
54679;SDS011;40578;53.178;5.846;2023-08-08T10:01:18;7.82;;;1.30;;
54679;SDS011;40578;53.178;5.846;2023-08-08T10:03:45;5.60;;;1.42;;
54679;SDS011;40578;53.178;5.846;2023-08-08T10:06:11;7.85;;;1.92;;
54679;SDS011;40578;53.178;5.846;2023-08-08T10:08:38;4.10;;;1.10;;
54679;SDS011;40578;53.178;5.846;2023-08-08T10:11:04;7.57;;;1.70;;
54679;SDS011;40578;53.178;5.846;2023-08-08T10:13:32;5.28;;;1.30;;
54679;SDS011;40578;53.178;5.846;2023-08-08T10:16:03;9.25;;;1.38;;
54679;SDS011;40578;53.178;5.846;2023-08-08T10:18:32;2.95;;;1.20;;
54679;SDS011;40578;53.178;5.846;2023-08-08T10:20:58;3.27;;;1.00;;
54679;SDS011;40578;53.178;5.846;2023-08-08T10:23:24;6.38;;;1.33;;
54679;SDS011;40578;53.178;5.846;2023-08-08T10:25:50;5.43;;;1.23;;
54679;SDS011;40578;53.178;5.846;2023-08-08T10:28:20;5.00;;;1.17;;
54679;SDS011;40578;53.178;5.846;2023-08-08T10:30:47;7.82;;;1.33;;
54679;SDS011;40578;53.178;5.846;2023-08-08T10:33:18;3.70;;;0.80;;
54679;SDS011;40578;53.178;5.846;2023-08-08T10:38:25;4.13;;;1.40;;
54679;SDS011;40578;53.178;5.846;2023-08-08T10:40:58;8.27;;;1.25;;
54679;SDS011;40578;53.178;5.846;2023-08-08T10:43:28;7.35;;;1.60;;
54679;SDS011;40578;53.178;5.846;2023-08-08T10:46:03;5.55;;;1.40;;
54679;SDS011;40578;53.178;5.846;2023-08-08T10:48:29;3.85;;;1.00;;
54679;SDS011;40578;53.178;5.846;2023-08-08T10:50:59;4.50;;;1.08;;
54679;SDS011;40578;53.178;5.846;2023-08-08T10:53:25;4.03;;;1.20;;
54679;SDS011;40578;53.178;5.846;2023-08-08T10:55:59;3.92;;;1.13;;
54679;SDS011;40578;53.178;5.846;2023-08-08T10:58:38;4.95;;;1.00;;
54679;SDS011;40578;53.178;5.846;2023-08-08T11:01:05;4.90;;;0.80;;
54679;SDS011;40578;53.178;5.846;2023-08-08T11:03:39;3.63;;;0.90;;
54679;SDS011;40578;53.178;5.846;2023-08-08T11:06:06;5.53;;;1.00;;
54679;SDS011;40578;53.178;5.846;2023-08-08T11:08:33;3.75;;;0.90;;
54679;SDS011;40578;53.178;5.846;2023-08-08T11:11:01;10.80;;;1.15;;
54679;SDS011;40578;53.178;5.846;2023-08-08T11:13:28;4.95;;;1.30;;
54679;SDS011;40578;53.178;5.846;2023-08-08T11:15:54;4.55;;;1.25;;
54679;SDS011;40578;53.178;5.846;2023-08-08T11:18:19;6.77;;;1.57;;
54679;SDS011;40578;53.178;5.846;2023-08-08T11:20:46;5.00;;;1.20;;
54679;SDS011;40578;53.178;5.846;2023-08-08T11:23:12;7.43;;;1.38;;
54679;SDS011;40578;53.178;5.846;2023-08-08T11:25:42;3.90;;;1.30;;
54679;SDS011;40578;53.178;5.846;2023-08-08T11:28:08;5.03;;;1.00;;
54679;SDS011;40578;53.178;5.846;2023-08-08T11:30:36;4.60;;;1.13;;
54679;SDS011;40578;53.178;5.846;2023-08-08T11:33:03;4.63;;;1.15;;
54679;SDS011;40578;53.178;5.846;2023-08-08T11:35:29;9.13;;;1.15;;
54679;SDS011;40578;53.178;5.846;2023-08-08T11:37:55;3.13;;;0.90;;
54679;SDS011;40578;53.178;5.846;2023-08-08T11:40:23;5.40;;;1.05;;
54679;SDS011;40578;53.178;5.846;2023-08-08T11:42:51;6.45;;;1.00;;
54679;SDS011;40578;53.178;5.846;2023-08-08T11:45:17;3.15;;;1.00;;
54679;SDS011;40578;53.178;5.846;2023-08-08T11:47:43;8.60;;;1.02;;
54679;SDS011;40578;53.178;5.846;2023-08-08T11:50:10;4.32;;;1.08;;
54679;SDS011;40578;53.178;5.846;2023-08-08T11:52:39;10.00;;;1.60;;
54679;SDS011;40578;53.178;5.846;2023-08-08T11:55:06;4.70;;;1.27;;
54679;SDS011;40578;53.178;5.846;2023-08-08T11:57:33;4.35;;;1.10;;
54679;SDS011;40578;53.178;5.846;2023-08-08T12:00:02;3.67;;;1.13;;
54679;SDS011;40578;53.178;5.846;2023-08-08T12:02:32;5.47;;;0.85;;
54679;SDS011;40578;53.178;5.846;2023-08-08T12:05:03;3.33;;;0.90;;
54679;SDS011;40578;53.178;5.846;2023-08-08T12:07:31;6.47;;;1.30;;
54679;SDS011;40578;53.178;5.846;2023-08-08T12:09:59;6.25;;;1.10;;
54679;SDS011;40578;53.178;5.846;2023-08-08T12:12:25;4.90;;;1.20;;
54679;SDS011;40578;53.178;5.846;2023-08-08T12:14:53;8.95;;;1.63;;
54679;SDS011;40578;53.178;5.846;2023-08-08T12:17:20;3.45;;;1.20;;
54679;SDS011;40578;53.178;5.846;2023-08-08T12:19:47;5.68;;;1.35;;
54679;SDS011;40578;53.178;5.846;2023-08-08T12:22:13;3.70;;;1.20;;
54679;SDS011;40578;53.178;5.846;2023-08-08T12:24:40;7.72;;;1.50;;
54679;SDS011;40578;53.178;5.846;2023-08-08T12:27:05;5.10;;;1.27;;
54679;SDS011;40578;53.178;5.846;2023-08-08T12:29:31;4.17;;;1.07;;
54679;SDS011;40578;53.178;5.846;2023-08-08T12:31:57;5.43;;;1.00;;
54679;SDS011;40578;53.178;5.846;2023-08-08T12:34:22;4.57;;;1.00;;
54679;SDS011;40578;53.178;5.846;2023-08-08T12:36:48;5.50;;;0.97;;
54679;SDS011;40578;53.178;5.846;2023-08-08T12:39:14;3.37;;;1.00;;
54679;SDS011;40578;53.178;5.846;2023-08-08T12:41:40;3.83;;;1.00;;
54679;SDS011;40578;53.178;5.846;2023-08-08T12:44:05;4.87;;;1.20;;
54679;SDS011;40578;53.178;5.846;2023-08-08T12:46:33;5.57;;;1.13;;
54679;SDS011;40578;53.178;5.846;2023-08-08T12:48:58;5.43;;;1.13;;
54679;SDS011;40578;53.178;5.846;2023-08-08T12:51:24;3.00;;;1.00;;
54679;SDS011;40578;53.178;5.846;2023-08-08T12:53:50;3.60;;;0.85;;
54679;SDS011;40578;53.178;5.846;2023-08-08T12:56:16;5.03;;;1.53;;
54679;SDS011;40578;53.178;5.846;2023-08-08T12:58:41;6.13;;;1.27;;
54679;SDS011;40578;53.178;5.846;2023-08-08T13:01:07;5.80;;;1.40;;
54679;SDS011;40578;53.178;5.846;2023-08-08T13:03:33;5.50;;;1.43;;
54679;SDS011;40578;53.178;5.846;2023-08-08T13:06:01;9.05;;;1.40;;
54679;SDS011;40578;53.178;5.846;2023-08-08T13:08:27;6.80;;;1.30;;
54679;SDS011;40578;53.178;5.846;2023-08-08T13:10:52;7.57;;;1.30;;
54679;SDS011;40578;53.178;5.846;2023-08-08T13:13:18;7.10;;;1.43;;
54679;SDS011;40578;53.178;5.846;2023-08-08T13:15:45;8.02;;;1.60;;
54679;SDS011;40578;53.178;5.846;2023-08-08T13:18:12;6.22;;;1.73;;
54679;SDS011;40578;53.178;5.846;2023-08-08T13:20:37;4.17;;;1.10;;
54679;SDS011;40578;53.178;5.846;2023-08-08T13:23:03;9.60;;;1.10;;
54679;SDS011;40578;53.178;5.846;2023-08-08T13:25:29;3.73;;;1.03;;
54679;SDS011;40578;53.178;5.846;2023-08-08T13:27:56;4.60;;;1.40;;
54679;SDS011;40578;53.178;5.846;2023-08-08T13:30:21;6.60;;;1.40;;
54679;SDS011;40578;53.178;5.846;2023-08-08T13:32:48;5.32;;;1.48;;
54679;SDS011;40578;53.178;5.846;2023-08-08T13:35:13;4.30;;;1.17;;
54679;SDS011;40578;53.178;5.846;2023-08-08T13:37:39;7.70;;;1.70;;
54679;SDS011;40578;53.178;5.846;2023-08-08T13:40:05;5.97;;;1.20;;
54679;SDS011;40578;53.178;5.846;2023-08-08T13:42:31;8.05;;;1.00;;
54679;SDS011;40578;53.178;5.846;2023-08-08T13:44:57;8.80;;;1.10;;
54679;SDS011;40578;53.178;5.846;2023-08-08T13:47:22;6.23;;;1.00;;
54679;SDS011;40578;53.178;5.846;2023-08-08T13:49:48;4.20;;;1.30;;
54679;SDS011;40578;53.178;5.846;2023-08-08T13:52:13;7.00;;;1.23;;
54679;SDS011;40578;53.178;5.846;2023-08-08T13:54:39;6.10;;;1.40;;
54679;SDS011;40578;53.178;5.846;2023-08-08T13:57:05;6.03;;;1.30;;
54679;SDS011;40578;53.178;5.846;2023-08-08T13:59:30;4.03;;;1.07;;
54679;SDS011;40578;53.178;5.846;2023-08-08T14:01:56;5.03;;;1.17;;
54679;SDS011;40578;53.178;5.846;2023-08-08T14:04:21;5.30;;;1.00;;
54679;SDS011;40578;53.178;5.846;2023-08-08T14:06:47;4.00;;;1.17;;
54679;SDS011;40578;53.178;5.846;2023-08-08T14:09:13;5.50;;;1.20;;
54679;SDS011;40578;53.178;5.846;2023-08-08T14:11:38;6.53;;;1.63;;
54679;SDS011;40578;53.178;5.846;2023-08-08T14:14:04;5.73;;;1.27;;
54679;SDS011;40578;53.178;5.846;2023-08-08T14:16:30;7.40;;;1.40;;
54679;SDS011;40578;53.178;5.846;2023-08-08T14:18:55;6.90;;;1.40;;
54679;SDS011;40578;53.178;5.846;2023-08-08T14:21:21;3.93;;;1.40;;
54679;SDS011;40578;53.178;5.846;2023-08-08T14:23:46;5.83;;;1.17;;
54679;SDS011;40578;53.178;5.846;2023-08-08T14:26:12;7.17;;;1.33;;
54679;SDS011;40578;53.178;5.846;2023-08-08T14:28:38;5.97;;;1.83;;
54679;SDS011;40578;53.178;5.846;2023-08-08T14:31:03;8.67;;;1.37;;
54679;SDS011;40578;53.178;5.846;2023-08-08T14:33:31;14.75;;;1.25;;
54679;SDS011;40578;53.178;5.846;2023-08-08T14:35:57;5.63;;;1.10;;
54679;SDS011;40578;53.178;5.846;2023-08-08T14:38:23;6.77;;;1.20;;
54679;SDS011;40578;53.178;5.846;2023-08-08T14:40:50;5.45;;;1.20;;
54679;SDS011;40578;53.178;5.846;2023-08-08T14:43:18;5.97;;;1.15;;
54679;SDS011;40578;53.178;5.846;2023-08-08T14:45:43;7.65;;;1.30;;